sensor_id;sensor_type;location;lat;lon;timestamp;P1;durP1;ratioP1;P2;durP2;ratioP2
5811;SDS011;2932;52.400;9.558;2023-03-01T03:43:32;11.90;;;6.37;;
5811;SDS011;2932;52.400;9.558;2023-03-01T03:45:59;9.10;;;5.77;;
5811;SDS011;2932;52.400;9.558;2023-03-01T03:48:24;9.70;;;6.37;;
5811;SDS011;2932;52.400;9.558;2023-03-01T03:50:51;10.60;;;5.97;;
5811;SDS011;2932;52.400;9.558;2023-03-01T03:53:19;11.30;;;6.43;;
5811;SDS011;2932;52.400;9.558;2023-03-01T03:55:45;11.13;;;6.20;;
5811;SDS011;2932;52.400;9.558;2023-03-01T03:58:14;8.17;;;5.67;;
5811;SDS011;2932;52.400;9.558;2023-03-01T04:00:41;8.33;;;5.80;;
5811;SDS011;2932;52.400;9.558;2023-03-01T04:03:08;10.40;;;6.57;;
5811;SDS011;2932;52.400;9.558;2023-03-01T04:05:35;13.60;;;6.50;;
5811;SDS011;2932;52.400;9.558;2023-03-01T04:08:02;10.30;;;6.53;;
5811;SDS011;2932;52.400;9.558;2023-03-01T04:10:32;10.60;;;6.33;;
5811;SDS011;2932;52.400;9.558;2023-03-01T04:13:06;11.70;;;6.80;;
5811;SDS011;2932;52.400;9.558;2023-03-01T04:15:32;14.13;;;7.83;;
5811;SDS011;2932;52.400;9.558;2023-03-01T04:17:58;11.00;;;6.93;;
5811;SDS011;2932;52.400;9.558;2023-03-01T04:20:26;13.93;;;7.40;;
5811;SDS011;2932;52.400;9.558;2023-03-01T04:22:57;15.93;;;7.47;;
5811;SDS011;2932;52.400;9.558;2023-03-01T04:25:25;10.70;;;6.50;;
5811;SDS011;2932;52.400;9.558;2023-03-01T04:27:50;12.30;;;7.23;;
5811;SDS011;2932;52.400;9.558;2023-03-01T04:30:16;12.17;;;7.77;;
5811;SDS011;2932;52.400;9.558;2023-03-01T04:32:41;11.27;;;6.50;;
5811;SDS011;2932;52.400;9.558;2023-03-01T04:35:07;15.23;;;7.43;;
5811;SDS011;2932;52.400;9.558;2023-03-01T04:37:33;12.33;;;6.80;;
5811;SDS011;2932;52.400;9.558;2023-03-01T04:39:59;11.27;;;6.20;;
5811;SDS011;2932;52.400;9.558;2023-03-01T04:42:25;11.93;;;6.47;;
5811;SDS011;2932;52.400;9.558;2023-03-01T04:44:51;11.03;;;6.23;;
5811;SDS011;2932;52.400;9.558;2023-03-01T04:47:17;9.63;;;5.93;;
5811;SDS011;2932;52.400;9.558;2023-03-01T04:49:42;11.13;;;7.23;;
5811;SDS011;2932;52.400;9.558;2023-03-01T04:52:07;10.80;;;6.83;;
5811;SDS011;2932;52.400;9.558;2023-03-01T04:54:34;12.27;;;6.13;;
5811;SDS011;2932;52.400;9.558;2023-03-01T04:57:01;17.50;;;9.77;;
5811;SDS011;2932;52.400;9.558;2023-03-01T04:59:26;29.30;;;15.33;;
5811;SDS011;2932;52.400;9.558;2023-03-01T05:01:52;27.00;;;13.30;;
5811;SDS011;2932;52.400;9.558;2023-03-01T05:04:24;18.67;;;10.30;;
5811;SDS011;2932;52.400;9.558;2023-03-01T05:06:50;12.33;;;7.17;;
5811;SDS011;2932;52.400;9.558;2023-03-01T05:09:15;10.60;;;6.60;;
5811;SDS011;2932;52.400;9.558;2023-03-01T05:11:41;12.63;;;6.80;;
5811;SDS011;2932;52.400;9.558;2023-03-01T05:14:07;9.60;;;6.20;;
5811;SDS011;2932;52.400;9.558;2023-03-01T05:16:34;10.87;;;6.90;;
5811;SDS011;2932;52.400;9.558;2023-03-01T05:19:01;13.83;;;7.17;;
5811;SDS011;2932;52.400;9.558;2023-03-01T05:21:36;9.00;;;6.37;;
5811;SDS011;2932;52.400;9.558;2023-03-01T05:24:22;9.97;;;6.13;;
5811;SDS011;2932;52.400;9.558;2023-03-01T05:26:47;11.33;;;6.23;;
5811;SDS011;2932;52.400;9.558;2023-03-01T05:29:13;11.00;;;6.00;;
5811;SDS011;2932;52.400;9.558;2023-03-01T05:31:38;11.40;;;6.47;;
5811;SDS011;2932;52.400;9.558;2023-03-01T05:34:03;10.90;;;6.37;;
5811;SDS011;2932;52.400;9.558;2023-03-01T05:36:29;10.93;;;5.97;;
5811;SDS011;2932;52.400;9.558;2023-03-01T05:38:54;9.57;;;6.30;;
5811;SDS011;2932;52.400;9.558;2023-03-01T05:41:20;11.47;;;6.63;;
5811;SDS011;2932;52.400;9.558;2023-03-01T05:43:46;12.40;;;6.97;;
5811;SDS011;2932;52.400;9.558;2023-03-01T05:46:11;13.10;;;7.27;;
5811;SDS011;2932;52.400;9.558;2023-03-01T05:48:38;9.13;;;6.10;;
5811;SDS011;2932;52.400;9.558;2023-03-01T05:51:03;7.93;;;6.20;;
5811;SDS011;2932;52.400;9.558;2023-03-01T05:53:29;11.87;;;6.67;;
5811;SDS011;2932;52.400;9.558;2023-03-01T05:55:54;10.97;;;6.70;;
5811;SDS011;2932;52.400;9.558;2023-03-01T05:58:20;11.70;;;6.73;;
5811;SDS011;2932;52.400;9.558;2023-03-01T06:00:46;12.03;;;6.67;;
5811;SDS011;2932;52.400;9.558;2023-03-01T06:03:13;10.43;;;6.73;;
5811;SDS011;2932;52.400;9.558;2023-03-01T06:05:41;14.13;;;6.53;;
5811;SDS011;2932;52.400;9.558;2023-03-01T06:08:08;13.47;;;7.03;;
5811;SDS011;2932;52.400;9.558;2023-03-01T06:10:35;13.50;;;7.80;;
5811;SDS011;2932;52.400;9.558;2023-03-01T06:13:00;13.83;;;7.07;;
5811;SDS011;2932;52.400;9.558;2023-03-01T06:15:26;10.70;;;6.33;;
5811;SDS011;2932;52.400;9.558;2023-03-01T06:17:52;16.30;;;7.47;;
5811;SDS011;2932;52.400;9.558;2023-03-01T06:20:21;12.53;;;7.00;;
5811;SDS011;2932;52.400;9.558;2023-03-01T06:22:48;10.53;;;6.33;;
5811;SDS011;2932;52.400;9.558;2023-03-01T06:25:15;11.30;;;6.23;;
5811;SDS011;2932;52.400;9.558;2023-03-01T06:27:43;13.03;;;6.43;;
5811;SDS011;2932;52.400;9.558;2023-03-01T06:30:10;13.07;;;6.93;;
5811;SDS011;2932;52.400;9.558;2023-03-01T06:32:37;12.93;;;6.23;;
5811;SDS011;2932;52.400;9.558;2023-03-01T06:35:03;14.03;;;6.70;;
5811;SDS011;2932;52.400;9.558;2023-03-01T06:37:30;9.57;;;6.47;;
5811;SDS011;2932;52.400;9.558;2023-03-01T06:39:55;11.60;;;6.33;;
5811;SDS011;2932;52.400;9.558;2023-03-01T06:42:20;16.20;;;6.40;;
5811;SDS011;2932;52.400;9.558;2023-03-01T06:44:46;14.93;;;6.30;;
5811;SDS011;2932;52.400;9.558;2023-03-01T06:47:11;10.63;;;6.60;;
5811;SDS011;2932;52.400;9.558;2023-03-01T06:49:37;10.17;;;6.40;;
5811;SDS011;2932;52.400;9.558;2023-03-01T06:52:02;12.37;;;6.57;;
5811;SDS011;2932;52.400;9.558;2023-03-01T06:54:28;9.07;;;6.57;;
5811;SDS011;2932;52.400;9.558;2023-03-01T06:56:53;10.67;;;7.10;;
5811;SDS011;2932;52.400;9.558;2023-03-01T06:59:19;12.97;;;6.63;;
5811;SDS011;2932;52.400;9.558;2023-03-01T07:01:44;11.37;;;6.20;;
5811;SDS011;2932;52.400;9.558;2023-03-01T07:04:10;12.37;;;6.50;;
5811;SDS011;2932;52.400;9.558;2023-03-01T07:06:36;11.10;;;6.67;;
5811;SDS011;2932;52.400;9.558;2023-03-01T07:09:01;10.93;;;6.20;;
5811;SDS011;2932;52.400;9.558;2023-03-01T07:11:27;10.87;;;6.40;;
5811;SDS011;2932;52.400;9.558;2023-03-01T07:13:52;9.53;;;6.07;;
5811;SDS011;2932;52.400;9.558;2023-03-01T07:16:18;14.57;;;6.63;;
5811;SDS011;2932;52.400;9.558;2023-03-01T07:18:45;9.37;;;6.20;;
5811;SDS011;2932;52.400;9.558;2023-03-01T07:21:11;12.70;;;6.07;;
5811;SDS011;2932;52.400;9.558;2023-03-01T07:23:37;11.63;;;7.40;;
5811;SDS011;2932;52.400;9.558;2023-03-01T07:26:03;9.60;;;6.63;;
5811;SDS011;2932;52.400;9.558;2023-03-01T07:28:28;11.43;;;7.27;;
5811;SDS011;2932;52.400;9.558;2023-03-01T07:30:54;11.30;;;7.13;;
5811;SDS011;2932;52.400;9.558;2023-03-01T07:33:20;9.87;;;6.63;;
5811;SDS011;2932;52.400;9.558;2023-03-01T07:35:46;13.03;;;6.70;;
5811;SDS011;2932;52.400;9.558;2023-03-01T07:38:11;11.53;;;6.87;;
5811;SDS011;2932;52.400;9.558;2023-03-01T07:40:36;12.80;;;6.97;;
5811;SDS011;2932;52.400;9.558;2023-03-01T07:43:02;12.67;;;7.27;;
5811;SDS011;2932;52.400;9.558;2023-03-01T07:45:27;11.97;;;7.03;;
5811;SDS011;2932;52.400;9.558;2023-03-01T07:47:54;9.40;;;6.83;;
5811;SDS011;2932;52.400;9.558;2023-03-01T07:50:20;11.03;;;7.50;;
5811;SDS011;2932;52.400;9.558;2023-03-01T07:52:47;14.13;;;7.70;;
5811;SDS011;2932;52.400;9.558;2023-03-01T07:55:14;17.50;;;7.70;;
5811;SDS011;2932;52.400;9.558;2023-03-01T07:57:41;14.13;;;7.73;;
5811;SDS011;2932;52.400;9.558;2023-03-01T08:00:07;14.00;;;8.37;;
5811;SDS011;2932;52.400;9.558;2023-03-01T08:02:34;18.37;;;7.93;;
5811;SDS011;2932;52.400;9.558;2023-03-01T08:05:00;13.73;;;7.60;;
5811;SDS011;2932;52.400;9.558;2023-03-01T08:07:25;19.80;;;8.13;;
5811;SDS011;2932;52.400;9.558;2023-03-01T08:09:51;10.80;;;7.33;;
5811;SDS011;2932;52.400;9.558;2023-03-01T08:12:16;13.60;;;7.80;;
5811;SDS011;2932;52.400;9.558;2023-03-01T08:14:42;10.73;;;6.67;;
5811;SDS011;2932;52.400;9.558;2023-03-01T08:17:07;13.40;;;7.90;;
5811;SDS011;2932;52.400;9.558;2023-03-01T08:19:33;12.67;;;7.70;;
5811;SDS011;2932;52.400;9.558;2023-03-01T08:21:59;12.03;;;7.67;;
5811;SDS011;2932;52.400;9.558;2023-03-01T08:24:26;10.47;;;7.13;;
5811;SDS011;2932;52.400;9.558;2023-03-01T08:26:52;13.60;;;7.87;;
5811;SDS011;2932;52.400;9.558;2023-03-01T08:29:18;12.10;;;6.97;;
5811;SDS011;2932;52.400;9.558;2023-03-01T08:31:43;11.13;;;7.20;;
5811;SDS011;2932;52.400;9.558;2023-03-01T08:34:10;14.37;;;7.40;;
5811;SDS011;2932;52.400;9.558;2023-03-01T08:36:39;9.60;;;6.20;;
5811;SDS011;2932;52.400;9.558;2023-03-01T08:39:06;9.60;;;6.93;;
5811;SDS011;2932;52.400;9.558;2023-03-01T08:41:33;13.57;;;6.93;;
5811;SDS011;2932;52.400;9.558;2023-03-01T08:43:58;9.43;;;6.20;;
5811;SDS011;2932;52.400;9.558;2023-03-01T08:46:25;13.20;;;6.57;;
5811;SDS011;2932;52.400;9.558;2023-03-01T08:48:51;8.63;;;5.80;;
5811;SDS011;2932;52.400;9.558;2023-03-01T08:51:17;8.90;;;6.50;;
5811;SDS011;2932;52.400;9.558;2023-03-01T08:53:43;11.70;;;6.20;;
5811;SDS011;2932;52.400;9.558;2023-03-01T08:56:09;8.80;;;5.90;;
5811;SDS011;2932;52.400;9.558;2023-03-01T08:58:35;9.90;;;6.20;;
5811;SDS011;2932;52.400;9.558;2023-03-01T09:01:06;13.13;;;6.13;;
5811;SDS011;2932;52.400;9.558;2023-03-01T09:03:33;9.43;;;6.13;;
5811;SDS011;2932;52.400;9.558;2023-03-01T09:06:01;8.23;;;5.50;;
5811;SDS011;2932;52.400;9.558;2023-03-01T09:08:28;10.00;;;5.97;;
5811;SDS011;2932;52.400;9.558;2023-03-01T09:10:53;8.73;;;6.20;;
5811;SDS011;2932;52.400;9.558;2023-03-01T09:13:19;11.63;;;6.93;;
5811;SDS011;2932;52.400;9.558;2023-03-01T09:15:44;11.57;;;6.37;;
5811;SDS011;2932;52.400;9.558;2023-03-01T09:18:13;9.50;;;5.90;;
5811;SDS011;2932;52.400;9.558;2023-03-01T09:20:38;11.10;;;6.20;;
5811;SDS011;2932;52.400;9.558;2023-03-01T09:23:03;8.20;;;5.90;;
5811;SDS011;2932;52.400;9.558;2023-03-01T09:25:28;8.97;;;5.40;;
5811;SDS011;2932;52.400;9.558;2023-03-01T09:27:54;8.53;;;5.80;;
5811;SDS011;2932;52.400;9.558;2023-03-01T09:30:20;9.23;;;5.73;;
5811;SDS011;2932;52.400;9.558;2023-03-01T09:32:46;8.23;;;5.40;;
5811;SDS011;2932;52.400;9.558;2023-03-01T09:35:12;15.77;;;6.63;;
5811;SDS011;2932;52.400;9.558;2023-03-01T09:37:38;10.27;;;5.83;;
5811;SDS011;2932;52.400;9.558;2023-03-01T09:40:05;12.70;;;5.63;;
5811;SDS011;2932;52.400;9.558;2023-03-01T09:42:44;7.93;;;5.53;;
5811;SDS011;2932;52.400;9.558;2023-03-01T09:45:38;7.70;;;5.57;;
5811;SDS011;2932;52.400;9.558;2023-03-01T09:48:18;10.70;;;5.63;;
5811;SDS011;2932;52.400;9.558;2023-03-01T09:50:49;16.13;;;10.43;;
5811;SDS011;2932;52.400;9.558;2023-03-01T09:53:17;7.93;;;5.53;;
5811;SDS011;2932;52.400;9.558;2023-03-01T09:56:19;9.67;;;5.90;;
5811;SDS011;2932;52.400;9.558;2023-03-01T09:58:50;8.37;;;5.00;;
5811;SDS011;2932;52.400;9.558;2023-03-01T10:01:29;8.33;;;4.50;;
5811;SDS011;2932;52.400;9.558;2023-03-01T10:09:57;12.10;;;6.93;;
5811;SDS011;2932;52.400;9.558;2023-03-01T10:12:25;10.17;;;6.30;;
5811;SDS011;2932;52.400;9.558;2023-03-01T10:15:06;11.70;;;6.33;;
5811;SDS011;2932;52.400;9.558;2023-03-01T10:17:45;11.10;;;5.60;;
5811;SDS011;2932;52.400;9.558;2023-03-01T10:20:16;9.50;;;5.80;;
5811;SDS011;2932;52.400;9.558;2023-03-01T10:22:42;9.63;;;5.70;;
5811;SDS011;2932;52.400;9.558;2023-03-01T10:25:13;10.40;;;5.30;;
5811;SDS011;2932;52.400;9.558;2023-03-01T10:30:19;8.90;;;5.10;;
5811;SDS011;2932;52.400;9.558;2023-03-01T10:32:49;5.63;;;4.30;;
5811;SDS011;2932;52.400;9.558;2023-03-01T10:35:22;7.13;;;4.30;;
5811;SDS011;2932;52.400;9.558;2023-03-01T10:37:56;5.40;;;3.90;;
5811;SDS011;2932;52.400;9.558;2023-03-01T10:40:30;9.17;;;3.77;;
5811;SDS011;2932;52.400;9.558;2023-03-01T10:43:03;6.83;;;3.77;;
5811;SDS011;2932;52.400;9.558;2023-03-01T10:50:38;7.63;;;3.03;;
5811;SDS011;2932;52.400;9.558;2023-03-01T10:53:16;4.47;;;3.03;;
5811;SDS011;2932;52.400;9.558;2023-03-01T10:55:43;5.80;;;3.37;;
5811;SDS011;2932;52.400;9.558;2023-03-01T11:00:46;5.33;;;2.67;;
5811;SDS011;2932;52.400;9.558;2023-03-01T11:03:20;4.30;;;3.00;;
5811;SDS011;2932;52.400;9.558;2023-03-01T11:05:58;3.63;;;2.70;;
5811;SDS011;2932;52.400;9.558;2023-03-01T11:08:48;7.00;;;3.10;;
5811;SDS011;2932;52.400;9.558;2023-03-01T11:13:59;4.30;;;2.60;;
5811;SDS011;2932;52.400;9.558;2023-03-01T11:16:38;5.67;;;2.60;;
5811;SDS011;2932;52.400;9.558;2023-03-01T11:24:15;6.13;;;3.00;;
5811;SDS011;2932;52.400;9.558;2023-03-01T11:26:42;5.77;;;2.80;;
5811;SDS011;2932;52.400;9.558;2023-03-01T11:29:21;3.90;;;2.83;;
5811;SDS011;2932;52.400;9.558;2023-03-01T11:31:56;4.33;;;3.00;;
5811;SDS011;2932;52.400;9.558;2023-03-01T11:34:36;3.80;;;3.10;;
5811;SDS011;2932;52.400;9.558;2023-03-01T11:37:10;3.65;;;2.60;;
5811;SDS011;2932;52.400;9.558;2023-03-01T11:39:51;3.13;;;2.47;;
5811;SDS011;2932;52.400;9.558;2023-03-01T11:42:19;3.92;;;2.78;;
5811;SDS011;2932;52.400;9.558;2023-03-01T11:44:50;3.00;;;2.50;;
5811;SDS011;2932;52.400;9.558;2023-03-01T12:01:06;5.35;;;2.90;;
5811;SDS011;2932;52.400;9.558;2023-03-01T12:03:36;4.45;;;2.90;;
5811;SDS011;2932;52.400;9.558;2023-03-01T12:08:42;5.93;;;3.13;;
5811;SDS011;2932;52.400;9.558;2023-03-01T12:19:31;4.65;;;3.25;;
5811;SDS011;2932;52.400;9.558;2023-03-01T12:30:26;3.25;;;2.70;;
5811;SDS011;2932;52.400;9.558;2023-03-01T12:38:14;3.22;;;2.50;;
5811;SDS011;2932;52.400;9.558;2023-03-01T12:43:22;4.90;;;2.90;;
5811;SDS011;2932;52.400;9.558;2023-03-01T12:51:07;2.85;;;2.25;;
5811;SDS011;2932;52.400;9.558;2023-03-01T12:53:39;3.47;;;2.30;;
5811;SDS011;2932;52.400;9.558;2023-03-01T12:56:10;4.47;;;2.10;;
5811;SDS011;2932;52.400;9.558;2023-03-01T13:17:51;2.83;;;2.20;;
5811;SDS011;2932;52.400;9.558;2023-03-01T13:20:20;2.10;;;1.90;;
5811;SDS011;2932;52.400;9.558;2023-03-01T13:22:48;2.90;;;1.80;;
5811;SDS011;2932;52.400;9.558;2023-03-01T13:25:30;2.08;;;1.88;;
5811;SDS011;2932;52.400;9.558;2023-03-01T13:30:58;4.10;;;2.80;;
5811;SDS011;2932;52.400;9.558;2023-03-01T13:35:52;3.30;;;2.40;;
5811;SDS011;2932;52.400;9.558;2023-03-01T13:41:08;4.32;;;2.30;;
5811;SDS011;2932;52.400;9.558;2023-03-01T13:43:35;5.70;;;2.35;;
5811;SDS011;2932;52.400;9.558;2023-03-01T13:46:07;4.80;;;2.38;;
5811;SDS011;2932;52.400;9.558;2023-03-01T13:48:36;2.40;;;2.25;;
5811;SDS011;2932;52.400;9.558;2023-03-01T13:51:07;2.63;;;2.28;;
5811;SDS011;2932;52.400;9.558;2023-03-01T13:53:35;3.03;;;2.60;;
5811;SDS011;2932;52.400;9.558;2023-03-01T13:58:43;3.00;;;2.33;;
5811;SDS011;2932;52.400;9.558;2023-03-01T14:04:14;3.38;;;2.60;;
5811;SDS011;2932;52.400;9.558;2023-03-01T14:07:10;3.10;;;2.25;;
5811;SDS011;2932;52.400;9.558;2023-03-01T14:09:46;3.58;;;2.38;;
5811;SDS011;2932;52.400;9.558;2023-03-01T14:12:21;4.18;;;2.83;;
5811;SDS011;2932;52.400;9.558;2023-03-01T14:15:06;3.35;;;2.20;;
5811;SDS011;2932;52.400;9.558;2023-03-01T14:20:19;3.33;;;2.35;;
5811;SDS011;2932;52.400;9.558;2023-03-01T14:22:47;2.75;;;2.55;;
5811;SDS011;2932;52.400;9.558;2023-03-01T14:27:54;2.55;;;2.35;;
5811;SDS011;2932;52.400;9.558;2023-03-01T14:30:47;3.55;;;2.72;;
5811;SDS011;2932;52.400;9.558;2023-03-01T14:33:20;2.60;;;2.40;;
5811;SDS011;2932;52.400;9.558;2023-03-01T14:36:03;2.80;;;2.60;;
5811;SDS011;2932;52.400;9.558;2023-03-01T14:38:49;2.70;;;2.40;;
5811;SDS011;2932;52.400;9.558;2023-03-01T14:41:15;2.47;;;2.28;;
5811;SDS011;2932;52.400;9.558;2023-03-01T14:43:44;3.17;;;2.20;;
5811;SDS011;2932;52.400;9.558;2023-03-01T14:46:20;2.65;;;2.22;;
5811;SDS011;2932;52.400;9.558;2023-03-01T14:48:49;3.20;;;2.58;;
5811;SDS011;2932;52.400;9.558;2023-03-01T14:51:16;3.17;;;2.15;;
5811;SDS011;2932;52.400;9.558;2023-03-01T14:53:41;3.00;;;2.10;;
5811;SDS011;2932;52.400;9.558;2023-03-01T14:56:12;2.22;;;2.03;;
5811;SDS011;2932;52.400;9.558;2023-03-01T14:58:39;3.20;;;2.10;;
5811;SDS011;2932;52.400;9.558;2023-03-01T15:01:04;3.20;;;2.53;;
5811;SDS011;2932;52.400;9.558;2023-03-01T15:03:34;2.85;;;2.30;;
5811;SDS011;2932;52.400;9.558;2023-03-01T15:06:10;2.58;;;2.20;;
5811;SDS011;2932;52.400;9.558;2023-03-01T15:08:44;5.47;;;2.63;;
5811;SDS011;2932;52.400;9.558;2023-03-01T15:11:20;2.92;;;2.25;;
5811;SDS011;2932;52.400;9.558;2023-03-01T15:13:49;3.80;;;2.85;;
5811;SDS011;2932;52.400;9.558;2023-03-01T15:16:19;3.65;;;2.55;;
5811;SDS011;2932;52.400;9.558;2023-03-01T15:18:49;2.97;;;2.20;;
5811;SDS011;2932;52.400;9.558;2023-03-01T15:23:50;3.20;;;2.15;;
5811;SDS011;2932;52.400;9.558;2023-03-01T15:26:22;3.00;;;2.45;;
5811;SDS011;2932;52.400;9.558;2023-03-01T15:28:49;2.97;;;2.25;;
5811;SDS011;2932;52.400;9.558;2023-03-01T15:33:49;2.45;;;2.25;;
5811;SDS011;2932;52.400;9.558;2023-03-01T15:36:32;2.50;;;2.30;;
5811;SDS011;2932;52.400;9.558;2023-03-01T15:38:58;3.47;;;2.42;;
5811;SDS011;2932;52.400;9.558;2023-03-01T15:41:46;2.92;;;2.30;;
5811;SDS011;2932;52.400;9.558;2023-03-01T15:44:16;4.57;;;2.60;;
5811;SDS011;2932;52.400;9.558;2023-03-01T15:46:46;3.13;;;2.72;;
5811;SDS011;2932;52.400;9.558;2023-03-01T15:51:56;4.93;;;3.92;;
5811;SDS011;2932;52.400;9.558;2023-03-01T15:54:22;4.10;;;3.08;;
5811;SDS011;2932;52.400;9.558;2023-03-01T15:56:50;4.05;;;3.40;;
5811;SDS011;2932;52.400;9.558;2023-03-01T15:59:16;4.82;;;4.18;;
5811;SDS011;2932;52.400;9.558;2023-03-01T16:01:42;8.50;;;5.90;;
5811;SDS011;2932;52.400;9.558;2023-03-01T16:04:11;6.30;;;5.47;;
5811;SDS011;2932;52.400;9.558;2023-03-01T16:06:53;5.72;;;4.20;;
5811;SDS011;2932;52.400;9.558;2023-03-01T16:09:22;4.68;;;3.50;;
5811;SDS011;2932;52.400;9.558;2023-03-01T16:11:51;5.30;;;4.28;;
5811;SDS011;2932;52.400;9.558;2023-03-01T16:14:18;3.45;;;2.90;;
5811;SDS011;2932;52.400;9.558;2023-03-01T16:16:44;3.40;;;3.10;;
5811;SDS011;2932;52.400;9.558;2023-03-01T16:19:10;3.05;;;2.75;;
5811;SDS011;2932;52.400;9.558;2023-03-01T16:21:36;4.35;;;3.50;;
5811;SDS011;2932;52.400;9.558;2023-03-01T16:24:03;4.18;;;2.92;;
5811;SDS011;2932;52.400;9.558;2023-03-01T16:26:29;2.80;;;2.60;;
5811;SDS011;2932;52.400;9.558;2023-03-01T16:28:55;2.97;;;2.67;;
5811;SDS011;2932;52.400;9.558;2023-03-01T16:31:21;5.90;;;4.95;;
5811;SDS011;2932;52.400;9.558;2023-03-01T16:33:47;5.20;;;4.70;;
5811;SDS011;2932;52.400;9.558;2023-03-01T16:36:15;4.10;;;3.42;;
5811;SDS011;2932;52.400;9.558;2023-03-01T16:38:42;3.72;;;3.20;;
5811;SDS011;2932;52.400;9.558;2023-03-01T16:41:12;5.00;;;2.83;;
5811;SDS011;2932;52.400;9.558;2023-03-01T16:43:39;3.35;;;3.05;;
5811;SDS011;2932;52.400;9.558;2023-03-01T16:46:11;3.75;;;2.80;;
5811;SDS011;2932;52.400;9.558;2023-03-01T16:48:42;3.35;;;2.70;;
5811;SDS011;2932;52.400;9.558;2023-03-01T16:51:08;4.03;;;3.00;;
5811;SDS011;2932;52.400;9.558;2023-03-01T16:53:34;3.60;;;2.50;;
5811;SDS011;2932;52.400;9.558;2023-03-01T16:56:04;3.63;;;2.90;;
5811;SDS011;2932;52.400;9.558;2023-03-01T16:58:31;3.85;;;2.92;;
5811;SDS011;2932;52.400;9.558;2023-03-01T17:00:56;4.10;;;2.78;;
5811;SDS011;2932;52.400;9.558;2023-03-01T17:03:28;10.07;;;5.13;;
5811;SDS011;2932;52.400;9.558;2023-03-01T17:05:54;4.70;;;3.00;;
5811;SDS011;2932;52.400;9.558;2023-03-01T17:08:19;6.47;;;2.70;;
5811;SDS011;2932;52.400;9.558;2023-03-01T17:10:45;3.37;;;2.83;;
5811;SDS011;2932;52.400;9.558;2023-03-01T17:13:11;3.80;;;2.40;;
5811;SDS011;2932;52.400;9.558;2023-03-01T17:15:40;3.30;;;2.70;;
5811;SDS011;2932;52.400;9.558;2023-03-01T17:18:06;3.67;;;2.97;;
5811;SDS011;2932;52.400;9.558;2023-03-01T17:20:32;3.40;;;2.60;;
5811;SDS011;2932;52.400;9.558;2023-03-01T17:22:58;4.70;;;2.80;;
5811;SDS011;2932;52.400;9.558;2023-03-01T17:25:23;5.00;;;2.80;;
5811;SDS011;2932;52.400;9.558;2023-03-01T17:27:49;4.10;;;2.50;;
5811;SDS011;2932;52.400;9.558;2023-03-01T17:30:14;3.90;;;2.70;;
5811;SDS011;2932;52.400;9.558;2023-03-01T17:32:40;3.93;;;2.50;;
5811;SDS011;2932;52.400;9.558;2023-03-01T17:35:06;6.40;;;2.87;;
5811;SDS011;2932;52.400;9.558;2023-03-01T17:37:32;4.73;;;3.10;;
5811;SDS011;2932;52.400;9.558;2023-03-01T17:39:57;4.77;;;2.80;;
5811;SDS011;2932;52.400;9.558;2023-03-01T17:42:23;4.53;;;3.20;;
5811;SDS011;2932;52.400;9.558;2023-03-01T17:44:48;5.77;;;4.27;;
5811;SDS011;2932;52.400;9.558;2023-03-01T17:47:14;9.93;;;4.43;;
5811;SDS011;2932;52.400;9.558;2023-03-01T17:49:39;9.87;;;4.77;;
5811;SDS011;2932;52.400;9.558;2023-03-01T17:52:04;7.23;;;4.20;;
5811;SDS011;2932;52.400;9.558;2023-03-01T17:54:30;7.73;;;4.60;;
5811;SDS011;2932;52.400;9.558;2023-03-01T17:56:57;11.07;;;5.70;;
5811;SDS011;2932;52.400;9.558;2023-03-01T17:59:23;18.03;;;9.63;;
5811;SDS011;2932;52.400;9.558;2023-03-01T18:01:48;12.33;;;7.53;;
5811;SDS011;2932;52.400;9.558;2023-03-01T18:04:14;10.63;;;6.70;;
5811;SDS011;2932;52.400;9.558;2023-03-01T18:06:39;11.73;;;5.83;;
5811;SDS011;2932;52.400;9.558;2023-03-01T18:09:05;10.57;;;5.70;;
5811;SDS011;2932;52.400;9.558;2023-03-01T18:11:32;10.43;;;5.00;;
5811;SDS011;2932;52.400;9.558;2023-03-01T18:13:58;8.07;;;5.33;;
5811;SDS011;2932;52.400;9.558;2023-03-01T18:16:23;10.93;;;6.00;;
5811;SDS011;2932;52.400;9.558;2023-03-01T18:18:52;11.90;;;7.10;;
5811;SDS011;2932;52.400;9.558;2023-03-01T18:21:19;11.83;;;6.50;;
5811;SDS011;2932;52.400;9.558;2023-03-01T18:23:45;9.70;;;6.03;;
5811;SDS011;2932;52.400;9.558;2023-03-01T18:26:12;10.90;;;6.60;;
5811;SDS011;2932;52.400;9.558;2023-03-01T18:28:41;13.80;;;5.80;;
5811;SDS011;2932;52.400;9.558;2023-03-01T18:31:07;11.03;;;5.90;;
5811;SDS011;2932;52.400;9.558;2023-03-01T18:33:35;10.27;;;6.03;;
5811;SDS011;2932;52.400;9.558;2023-03-01T18:36:02;9.23;;;5.87;;
5811;SDS011;2932;52.400;9.558;2023-03-01T18:38:28;8.70;;;5.23;;
5811;SDS011;2932;52.400;9.558;2023-03-01T18:40:53;8.03;;;5.23;;
5811;SDS011;2932;52.400;9.558;2023-03-01T18:43:20;10.67;;;6.37;;
5811;SDS011;2932;52.400;9.558;2023-03-01T18:45:46;12.23;;;7.47;;
5811;SDS011;2932;52.400;9.558;2023-03-01T18:48:11;14.23;;;7.17;;
5811;SDS011;2932;52.400;9.558;2023-03-01T18:50:38;19.03;;;7.50;;
5811;SDS011;2932;52.400;9.558;2023-03-01T18:53:03;13.00;;;6.37;;
5811;SDS011;2932;52.400;9.558;2023-03-01T18:55:29;13.63;;;6.17;;
5811;SDS011;2932;52.400;9.558;2023-03-01T18:57:54;13.77;;;6.13;;
5811;SDS011;2932;52.400;9.558;2023-03-01T19:00:20;10.27;;;4.63;;
5811;SDS011;2932;52.400;9.558;2023-03-01T19:02:45;11.60;;;5.03;;
5811;SDS011;2932;52.400;9.558;2023-03-01T19:05:11;9.37;;;4.80;;
5811;SDS011;2932;52.400;9.558;2023-03-01T19:07:37;7.73;;;4.43;;
5811;SDS011;2932;52.400;9.558;2023-03-01T19:10:02;15.13;;;5.80;;
5811;SDS011;2932;52.400;9.558;2023-03-01T19:12:28;13.70;;;5.70;;
5811;SDS011;2932;52.400;9.558;2023-03-01T19:14:54;12.50;;;6.10;;
5811;SDS011;2932;52.400;9.558;2023-03-01T19:17:21;10.97;;;5.33;;
5811;SDS011;2932;52.400;9.558;2023-03-01T19:19:48;9.30;;;5.40;;
5811;SDS011;2932;52.400;9.558;2023-03-01T19:22:15;12.63;;;6.03;;
5811;SDS011;2932;52.400;9.558;2023-03-01T19:24:40;9.57;;;6.37;;
5811;SDS011;2932;52.400;9.558;2023-03-01T19:27:05;9.50;;;5.77;;
5811;SDS011;2932;52.400;9.558;2023-03-01T19:29:31;11.03;;;5.80;;
5811;SDS011;2932;52.400;9.558;2023-03-01T19:31:56;10.57;;;5.53;;
5811;SDS011;2932;52.400;9.558;2023-03-01T19:34:21;9.37;;;5.30;;
5811;SDS011;2932;52.400;9.558;2023-03-01T19:36:48;8.80;;;5.33;;
5811;SDS011;2932;52.400;9.558;2023-03-01T19:39:13;10.73;;;5.67;;
5811;SDS011;2932;52.400;9.558;2023-03-01T19:41:39;9.37;;;5.23;;
5811;SDS011;2932;52.400;9.558;2023-03-01T19:44:05;13.33;;;6.53;;
5811;SDS011;2932;52.400;9.558;2023-03-01T19:46:33;10.20;;;5.33;;
5811;SDS011;2932;52.400;9.558;2023-03-01T19:48:58;8.77;;;5.27;;
5811;SDS011;2932;52.400;9.558;2023-03-01T19:51:25;6.33;;;4.30;;
5811;SDS011;2932;52.400;9.558;2023-03-01T19:53:51;7.97;;;4.37;;
5811;SDS011;2932;52.400;9.558;2023-03-01T19:56:17;15.27;;;7.53;;
5811;SDS011;2932;52.400;9.558;2023-03-01T19:58:43;11.23;;;6.63;;
5811;SDS011;2932;52.400;9.558;2023-03-01T20:01:15;14.47;;;8.00;;
5811;SDS011;2932;52.400;9.558;2023-03-01T20:03:42;11.40;;;7.47;;
5811;SDS011;2932;52.400;9.558;2023-03-01T20:06:09;11.53;;;6.63;;
5811;SDS011;2932;52.400;9.558;2023-03-01T20:08:37;13.50;;;7.53;;
5811;SDS011;2932;52.400;9.558;2023-03-01T20:11:03;11.40;;;6.43;;
5811;SDS011;2932;52.400;9.558;2023-03-01T20:13:30;10.67;;;5.47;;
5811;SDS011;2932;52.400;9.558;2023-03-01T20:15:56;8.03;;;4.87;;
5811;SDS011;2932;52.400;9.558;2023-03-01T20:18:21;7.93;;;4.80;;
5811;SDS011;2932;52.400;9.558;2023-03-01T20:20:49;9.07;;;4.93;;
5811;SDS011;2932;52.400;9.558;2023-03-01T20:23:15;9.30;;;4.60;;
5811;SDS011;2932;52.400;9.558;2023-03-01T20:25:42;6.93;;;4.30;;
5811;SDS011;2932;52.400;9.558;2023-03-01T20:28:07;7.70;;;4.00;;
5811;SDS011;2932;52.400;9.558;2023-03-01T20:30:33;6.27;;;4.67;;
5811;SDS011;2932;52.400;9.558;2023-03-01T20:32:58;7.70;;;4.47;;
5811;SDS011;2932;52.400;9.558;2023-03-01T20:35:23;6.10;;;3.70;;
5811;SDS011;2932;52.400;9.558;2023-03-01T20:37:52;7.67;;;4.10;;
5811;SDS011;2932;52.400;9.558;2023-03-01T20:40:18;7.03;;;4.37;;
5811;SDS011;2932;52.400;9.558;2023-03-01T20:42:45;6.43;;;3.57;;
5811;SDS011;2932;52.400;9.558;2023-03-01T20:45:11;6.57;;;3.90;;
5811;SDS011;2932;52.400;9.558;2023-03-01T20:47:37;6.83;;;3.73;;
5811;SDS011;2932;52.400;9.558;2023-03-01T20:50:02;6.57;;;3.43;;
5811;SDS011;2932;52.400;9.558;2023-03-01T20:52:29;7.77;;;4.37;;
5811;SDS011;2932;52.400;9.558;2023-03-01T20:54:55;6.83;;;3.70;;